sensor_id;sensor_type;location;lat;lon;timestamp;P1;durP1;ratioP1;P2;durP2;ratioP2
8803;SDS011;4438;50.890;4.726;2023-05-10T00:01:12;10.30;;;8.40;;
8803;SDS011;4438;50.890;4.726;2023-05-10T00:03:38;9.70;;;8.30;;
8803;SDS011;4438;50.890;4.726;2023-05-10T00:06:05;9.93;;;8.73;;
8803;SDS011;4438;50.890;4.726;2023-05-10T00:08:31;10.07;;;8.50;;
8803;SDS011;4438;50.890;4.726;2023-05-10T00:10:57;9.90;;;8.60;;
8803;SDS011;4438;50.890;4.726;2023-05-10T00:13:23;11.77;;;8.30;;
8803;SDS011;4438;50.890;4.726;2023-05-10T00:15:49;8.87;;;7.97;;
8803;SDS011;4438;50.890;4.726;2023-05-10T00:18:15;8.70;;;7.80;;
8803;SDS011;4438;50.890;4.726;2023-05-10T00:20:41;9.93;;;8.30;;
8803;SDS011;4438;50.890;4.726;2023-05-10T00:23:07;9.80;;;8.17;;
8803;SDS011;4438;50.890;4.726;2023-05-10T00:25:34;9.07;;;7.87;;
8803;SDS011;4438;50.890;4.726;2023-05-10T00:28:00;8.73;;;7.87;;
8803;SDS011;4438;50.890;4.726;2023-05-10T00:30:26;10.47;;;8.53;;
8803;SDS011;4438;50.890;4.726;2023-05-10T00:32:52;9.83;;;8.37;;
8803;SDS011;4438;50.890;4.726;2023-05-10T00:35:19;10.40;;;8.40;;
8803;SDS011;4438;50.890;4.726;2023-05-10T00:37:46;12.47;;;9.33;;
8803;SDS011;4438;50.890;4.726;2023-05-10T00:40:12;12.43;;;8.43;;
8803;SDS011;4438;50.890;4.726;2023-05-10T00:42:39;11.23;;;8.40;;
8803;SDS011;4438;50.890;4.726;2023-05-10T00:45:05;12.70;;;8.93;;
8803;SDS011;4438;50.890;4.726;2023-05-10T00:47:32;10.83;;;8.13;;
8803;SDS011;4438;50.890;4.726;2023-05-10T00:49:58;14.17;;;9.30;;
8803;SDS011;4438;50.890;4.726;2023-05-10T00:52:26;10.20;;;8.70;;
8803;SDS011;4438;50.890;4.726;2023-05-10T00:54:52;11.33;;;9.13;;
8803;SDS011;4438;50.890;4.726;2023-05-10T00:57:19;12.10;;;9.30;;
8803;SDS011;4438;50.890;4.726;2023-05-10T00:59:45;10.13;;;8.97;;
8803;SDS011;4438;50.890;4.726;2023-05-10T01:02:11;10.83;;;9.27;;
8803;SDS011;4438;50.890;4.726;2023-05-10T01:04:38;12.20;;;9.33;;
8803;SDS011;4438;50.890;4.726;2023-05-10T01:07:04;10.87;;;9.37;;
8803;SDS011;4438;50.890;4.726;2023-05-10T01:09:30;15.63;;;10.63;;
8803;SDS011;4438;50.890;4.726;2023-05-10T01:11:57;14.10;;;10.33;;
8803;SDS011;4438;50.890;4.726;2023-05-10T01:14:23;12.67;;;9.97;;
8803;SDS011;4438;50.890;4.726;2023-05-10T01:16:50;12.57;;;10.23;;
8803;SDS011;4438;50.890;4.726;2023-05-10T01:19:19;12.83;;;9.67;;
8803;SDS011;4438;50.890;4.726;2023-05-10T01:34:54;14.27;;;10.83;;
8803;SDS011;4438;50.890;4.726;2023-05-10T01:37:21;14.03;;;11.60;;
8803;SDS011;4438;50.890;4.726;2023-05-10T01:39:59;15.50;;;11.17;;
8803;SDS011;4438;50.890;4.726;2023-05-10T01:42:26;17.47;;;12.10;;
8803;SDS011;4438;50.890;4.726;2023-05-10T01:47:29;13.90;;;12.20;;
8803;SDS011;4438;50.890;4.726;2023-05-10T01:49:56;13.40;;;11.30;;
8803;SDS011;4438;50.890;4.726;2023-05-10T01:52:32;15.60;;;11.27;;
8803;SDS011;4438;50.890;4.726;2023-05-10T01:55:00;15.70;;;12.20;;
8803;SDS011;4438;50.890;4.726;2023-05-10T01:57:27;14.50;;;12.27;;
8803;SDS011;4438;50.890;4.726;2023-05-10T01:59:57;13.30;;;11.90;;
8803;SDS011;4438;50.890;4.726;2023-05-10T02:02:24;15.67;;;12.20;;
8803;SDS011;4438;50.890;4.726;2023-05-10T02:04:51;14.23;;;12.07;;
8803;SDS011;4438;50.890;4.726;2023-05-10T02:07:19;13.53;;;12.13;;
8803;SDS011;4438;50.890;4.726;2023-05-10T02:09:46;16.10;;;12.50;;
8803;SDS011;4438;50.890;4.726;2023-05-10T02:12:13;13.60;;;12.17;;
8803;SDS011;4438;50.890;4.726;2023-05-10T02:14:40;18.10;;;12.77;;
8803;SDS011;4438;50.890;4.726;2023-05-10T02:17:07;15.57;;;12.33;;
8803;SDS011;4438;50.890;4.726;2023-05-10T02:19:35;16.10;;;13.17;;
8803;SDS011;4438;50.890;4.726;2023-05-10T02:22:02;15.17;;;12.87;;
8803;SDS011;4438;50.890;4.726;2023-05-10T02:24:29;16.53;;;13.57;;
8803;SDS011;4438;50.890;4.726;2023-05-10T02:26:55;17.90;;;13.53;;
8803;SDS011;4438;50.890;4.726;2023-05-10T02:29:25;15.67;;;13.87;;
8803;SDS011;4438;50.890;4.726;2023-05-10T02:31:53;15.97;;;13.17;;
8803;SDS011;4438;50.890;4.726;2023-05-10T02:34:21;15.40;;;13.13;;
8803;SDS011;4438;50.890;4.726;2023-05-10T02:36:48;18.57;;;13.07;;
8803;SDS011;4438;50.890;4.726;2023-05-10T02:39:14;15.33;;;12.67;;
8803;SDS011;4438;50.890;4.726;2023-05-10T02:41:41;15.10;;;12.50;;
8803;SDS011;4438;50.890;4.726;2023-05-10T02:44:08;16.57;;;12.67;;
8803;SDS011;4438;50.890;4.726;2023-05-10T02:46:35;15.57;;;13.33;;
8803;SDS011;4438;50.890;4.726;2023-05-10T02:49:02;15.90;;;12.00;;
8803;SDS011;4438;50.890;4.726;2023-05-10T02:51:30;14.47;;;12.37;;
8803;SDS011;4438;50.890;4.726;2023-05-10T02:53:57;16.93;;;12.90;;
8803;SDS011;4438;50.890;4.726;2023-05-10T02:56:24;16.50;;;13.23;;
8803;SDS011;4438;50.890;4.726;2023-05-10T02:58:51;14.00;;;12.57;;
8803;SDS011;4438;50.890;4.726;2023-05-10T03:01:18;15.17;;;12.50;;
8803;SDS011;4438;50.890;4.726;2023-05-10T03:03:44;14.27;;;12.17;;
8803;SDS011;4438;50.890;4.726;2023-05-10T03:06:10;14.83;;;12.20;;
8803;SDS011;4438;50.890;4.726;2023-05-10T03:08:36;15.17;;;12.10;;
8803;SDS011;4438;50.890;4.726;2023-05-10T03:11:20;17.43;;;13.50;;
8803;SDS011;4438;50.890;4.726;2023-05-10T03:16:19;17.37;;;13.27;;
8803;SDS011;4438;50.890;4.726;2023-05-10T03:18:50;14.27;;;12.77;;
8803;SDS011;4438;50.890;4.726;2023-05-10T03:21:20;15.93;;;12.70;;
8803;SDS011;4438;50.890;4.726;2023-05-10T03:23:51;15.07;;;13.30;;
8803;SDS011;4438;50.890;4.726;2023-05-10T03:26:22;15.90;;;12.83;;
8803;SDS011;4438;50.890;4.726;2023-05-10T03:28:50;17.37;;;13.30;;
8803;SDS011;4438;50.890;4.726;2023-05-10T03:31:20;15.60;;;12.63;;
8803;SDS011;4438;50.890;4.726;2023-05-10T03:33:47;15.00;;;12.53;;
8803;SDS011;4438;50.890;4.726;2023-05-10T03:36:13;16.20;;;12.53;;
8803;SDS011;4438;50.890;4.726;2023-05-10T03:38:39;17.03;;;13.13;;
8803;SDS011;4438;50.890;4.726;2023-05-10T03:41:05;14.37;;;11.57;;
8803;SDS011;4438;50.890;4.726;2023-05-10T03:43:31;15.00;;;11.40;;
8803;SDS011;4438;50.890;4.726;2023-05-10T03:45:58;14.77;;;11.97;;
8803;SDS011;4438;50.890;4.726;2023-05-10T03:48:24;16.27;;;11.50;;
8803;SDS011;4438;50.890;4.726;2023-05-10T03:50:50;13.33;;;10.27;;
8803;SDS011;4438;50.890;4.726;2023-05-10T03:53:16;13.17;;;10.10;;
8803;SDS011;4438;50.890;4.726;2023-05-10T03:55:42;14.33;;;10.43;;
8803;SDS011;4438;50.890;4.726;2023-05-10T03:58:11;12.03;;;10.27;;
8803;SDS011;4438;50.890;4.726;2023-05-10T04:00:38;15.07;;;10.70;;
8803;SDS011;4438;50.890;4.726;2023-05-10T04:03:09;15.53;;;11.73;;
8803;SDS011;4438;50.890;4.726;2023-05-10T04:05:35;17.60;;;13.00;;
8803;SDS011;4438;50.890;4.726;2023-05-10T04:08:02;20.40;;;14.23;;
8803;SDS011;4438;50.890;4.726;2023-05-10T04:10:28;20.97;;;15.77;;
8803;SDS011;4438;50.890;4.726;2023-05-10T04:12:54;24.73;;;15.73;;
8803;SDS011;4438;50.890;4.726;2023-05-10T04:15:20;21.73;;;16.00;;
8803;SDS011;4438;50.890;4.726;2023-05-10T04:17:46;21.57;;;16.67;;
8803;SDS011;4438;50.890;4.726;2023-05-10T04:20:13;23.93;;;16.33;;
8803;SDS011;4438;50.890;4.726;2023-05-10T04:22:39;24.03;;;17.03;;
8803;SDS011;4438;50.890;4.726;2023-05-10T04:25:06;23.63;;;18.30;;
8803;SDS011;4438;50.890;4.726;2023-05-10T04:27:32;24.47;;;17.07;;
8803;SDS011;4438;50.890;4.726;2023-05-10T04:29:58;23.93;;;17.37;;
8803;SDS011;4438;50.890;4.726;2023-05-10T04:32:24;23.33;;;17.53;;
8803;SDS011;4438;50.890;4.726;2023-05-10T04:34:51;23.90;;;16.77;;
8803;SDS011;4438;50.890;4.726;2023-05-10T04:37:17;24.83;;;17.87;;
8803;SDS011;4438;50.890;4.726;2023-05-10T04:39:43;25.17;;;17.87;;
8803;SDS011;4438;50.890;4.726;2023-05-10T04:42:10;23.43;;;17.97;;
8803;SDS011;4438;50.890;4.726;2023-05-10T04:44:36;23.27;;;17.47;;
8803;SDS011;4438;50.890;4.726;2023-05-10T04:47:02;26.73;;;18.43;;
8803;SDS011;4438;50.890;4.726;2023-05-10T04:49:29;24.07;;;19.03;;
8803;SDS011;4438;50.890;4.726;2023-05-10T04:51:55;25.90;;;20.20;;
8803;SDS011;4438;50.890;4.726;2023-05-10T04:54:21;26.10;;;18.90;;
8803;SDS011;4438;50.890;4.726;2023-05-10T04:56:48;27.57;;;20.40;;
8803;SDS011;4438;50.890;4.726;2023-05-10T04:59:14;25.73;;;18.53;;
8803;SDS011;4438;50.890;4.726;2023-05-10T05:01:40;24.37;;;19.07;;
8803;SDS011;4438;50.890;4.726;2023-05-10T05:04:06;26.10;;;20.20;;
8803;SDS011;4438;50.890;4.726;2023-05-10T05:06:33;27.03;;;20.93;;
8803;SDS011;4438;50.890;4.726;2023-05-10T05:08:59;27.07;;;20.07;;
8803;SDS011;4438;50.890;4.726;2023-05-10T05:11:26;27.30;;;20.77;;
8803;SDS011;4438;50.890;4.726;2023-05-10T05:13:52;28.33;;;20.83;;
8803;SDS011;4438;50.890;4.726;2023-05-10T05:16:18;29.53;;;21.07;;
8803;SDS011;4438;50.890;4.726;2023-05-10T05:18:44;26.00;;;20.13;;
8803;SDS011;4438;50.890;4.726;2023-05-10T05:21:14;29.60;;;21.00;;
8803;SDS011;4438;50.890;4.726;2023-05-10T05:23:41;32.43;;;22.03;;
8803;SDS011;4438;50.890;4.726;2023-05-10T05:26:07;29.27;;;21.43;;
8803;SDS011;4438;50.890;4.726;2023-05-10T05:28:33;27.33;;;20.03;;
8803;SDS011;4438;50.890;4.726;2023-05-10T05:31:02;26.47;;;20.23;;
8803;SDS011;4438;50.890;4.726;2023-05-10T05:33:30;28.20;;;21.00;;
8803;SDS011;4438;50.890;4.726;2023-05-10T05:35:56;27.03;;;20.30;;
8803;SDS011;4438;50.890;4.726;2023-05-10T05:38:23;30.20;;;21.03;;
8803;SDS011;4438;50.890;4.726;2023-05-10T05:40:49;34.27;;;21.93;;
8803;SDS011;4438;50.890;4.726;2023-05-10T05:43:15;26.93;;;19.93;;
8803;SDS011;4438;50.890;4.726;2023-05-10T05:45:41;27.77;;;20.80;;
8803;SDS011;4438;50.890;4.726;2023-05-10T05:48:07;29.87;;;21.03;;
8803;SDS011;4438;50.890;4.726;2023-05-10T05:50:33;29.73;;;21.00;;
8803;SDS011;4438;50.890;4.726;2023-05-10T05:52:59;31.43;;;21.27;;
8803;SDS011;4438;50.890;4.726;2023-05-10T05:55:26;25.03;;;19.40;;
8803;SDS011;4438;50.890;4.726;2023-05-10T05:57:52;29.43;;;20.07;;
8803;SDS011;4438;50.890;4.726;2023-05-10T06:00:19;27.60;;;20.47;;
8803;SDS011;4438;50.890;4.726;2023-05-10T06:02:46;26.23;;;20.07;;
8803;SDS011;4438;50.890;4.726;2023-05-10T06:05:12;26.33;;;19.67;;
8803;SDS011;4438;50.890;4.726;2023-05-10T06:07:39;27.07;;;20.87;;
8803;SDS011;4438;50.890;4.726;2023-05-10T06:10:07;24.80;;;19.50;;
8803;SDS011;4438;50.890;4.726;2023-05-10T06:12:33;25.13;;;20.07;;
8803;SDS011;4438;50.890;4.726;2023-05-10T06:14:59;26.03;;;19.03;;
8803;SDS011;4438;50.890;4.726;2023-05-10T06:17:26;24.60;;;19.67;;
8803;SDS011;4438;50.890;4.726;2023-05-10T06:19:52;24.33;;;18.93;;
8803;SDS011;4438;50.890;4.726;2023-05-10T06:22:18;24.77;;;19.13;;
8803;SDS011;4438;50.890;4.726;2023-05-10T06:24:45;27.47;;;19.23;;
8803;SDS011;4438;50.890;4.726;2023-05-10T06:27:11;26.77;;;19.70;;
8803;SDS011;4438;50.890;4.726;2023-05-10T06:29:37;25.37;;;19.77;;
8803;SDS011;4438;50.890;4.726;2023-05-10T06:32:03;24.97;;;19.40;;
8803;SDS011;4438;50.890;4.726;2023-05-10T06:34:29;24.77;;;19.60;;
8803;SDS011;4438;50.890;4.726;2023-05-10T06:36:56;21.93;;;17.60;;
8803;SDS011;4438;50.890;4.726;2023-05-10T06:39:22;26.23;;;20.77;;
8803;SDS011;4438;50.890;4.726;2023-05-10T06:41:48;26.47;;;20.03;;
8803;SDS011;4438;50.890;4.726;2023-05-10T06:44:15;26.00;;;19.57;;
8803;SDS011;4438;50.890;4.726;2023-05-10T06:46:41;25.43;;;20.17;;
8803;SDS011;4438;50.890;4.726;2023-05-10T06:49:07;24.17;;;19.90;;
8803;SDS011;4438;50.890;4.726;2023-05-10T06:51:34;26.97;;;20.90;;
8803;SDS011;4438;50.890;4.726;2023-05-10T06:54:00;23.17;;;19.53;;
8803;SDS011;4438;50.890;4.726;2023-05-10T06:56:26;24.83;;;19.03;;
8803;SDS011;4438;50.890;4.726;2023-05-10T06:58:53;25.70;;;19.70;;
8803;SDS011;4438;50.890;4.726;2023-05-10T07:01:20;25.03;;;18.63;;
8803;SDS011;4438;50.890;4.726;2023-05-10T07:03:47;22.17;;;18.23;;
8803;SDS011;4438;50.890;4.726;2023-05-10T07:06:13;20.27;;;15.77;;
8803;SDS011;4438;50.890;4.726;2023-05-10T07:08:39;16.03;;;13.10;;
8803;SDS011;4438;50.890;4.726;2023-05-10T07:11:05;16.63;;;13.30;;
8803;SDS011;4438;50.890;4.726;2023-05-10T07:13:35;12.07;;;9.87;;
8803;SDS011;4438;50.890;4.726;2023-05-10T07:16:04;10.10;;;8.53;;
8803;SDS011;4438;50.890;4.726;2023-05-10T07:18:31;10.07;;;8.30;;
8803;SDS011;4438;50.890;4.726;2023-05-10T07:20:57;9.90;;;7.57;;
8803;SDS011;4438;50.890;4.726;2023-05-10T07:23:24;9.77;;;7.77;;
8803;SDS011;4438;50.890;4.726;2023-05-10T07:25:50;10.00;;;7.27;;
8803;SDS011;4438;50.890;4.726;2023-05-10T07:28:17;8.80;;;7.43;;
8803;SDS011;4438;50.890;4.726;2023-05-10T07:30:44;8.43;;;7.60;;
8803;SDS011;4438;50.890;4.726;2023-05-10T07:33:10;10.07;;;6.97;;
8803;SDS011;4438;50.890;4.726;2023-05-10T07:35:37;9.53;;;7.30;;
8803;SDS011;4438;50.890;4.726;2023-05-10T07:38:04;9.57;;;7.63;;
8803;SDS011;4438;50.890;4.726;2023-05-10T07:40:30;10.40;;;6.97;;
8803;SDS011;4438;50.890;4.726;2023-05-10T07:42:56;7.77;;;6.80;;
8803;SDS011;4438;50.890;4.726;2023-05-10T07:45:22;7.10;;;6.50;;
8803;SDS011;4438;50.890;4.726;2023-05-10T07:47:48;5.87;;;5.13;;
8803;SDS011;4438;50.890;4.726;2023-05-10T07:50:14;6.10;;;5.50;;
8803;SDS011;4438;50.890;4.726;2023-05-10T07:52:41;5.63;;;4.90;;
8803;SDS011;4438;50.890;4.726;2023-05-10T07:55:07;7.53;;;5.97;;
8803;SDS011;4438;50.890;4.726;2023-05-10T07:57:34;6.20;;;4.93;;
8803;SDS011;4438;50.890;4.726;2023-05-10T08:00:00;6.30;;;5.03;;
8803;SDS011;4438;50.890;4.726;2023-05-10T08:02:26;6.00;;;5.40;;
8803;SDS011;4438;50.890;4.726;2023-05-10T08:04:52;7.43;;;5.90;;
8803;SDS011;4438;50.890;4.726;2023-05-10T08:07:19;8.10;;;6.27;;
8803;SDS011;4438;50.890;4.726;2023-05-10T08:09:45;10.63;;;7.90;;
8803;SDS011;4438;50.890;4.726;2023-05-10T08:12:11;9.60;;;8.10;;
8803;SDS011;4438;50.890;4.726;2023-05-10T08:14:37;13.73;;;9.47;;
8803;SDS011;4438;50.890;4.726;2023-05-10T08:17:03;14.33;;;10.57;;
8803;SDS011;4438;50.890;4.726;2023-05-10T08:19:29;15.13;;;11.63;;
8803;SDS011;4438;50.890;4.726;2023-05-10T08:21:56;14.37;;;11.73;;
8803;SDS011;4438;50.890;4.726;2023-05-10T08:24:22;11.57;;;9.33;;
8803;SDS011;4438;50.890;4.726;2023-05-10T08:26:48;13.43;;;10.07;;
8803;SDS011;4438;50.890;4.726;2023-05-10T08:29:14;11.07;;;9.50;;
8803;SDS011;4438;50.890;4.726;2023-05-10T08:31:41;16.17;;;10.90;;
8803;SDS011;4438;50.890;4.726;2023-05-10T08:34:07;12.60;;;10.17;;
8803;SDS011;4438;50.890;4.726;2023-05-10T08:36:33;13.20;;;10.13;;
8803;SDS011;4438;50.890;4.726;2023-05-10T08:38:59;12.63;;;9.80;;
8803;SDS011;4438;50.890;4.726;2023-05-10T08:41:25;14.03;;;9.90;;
8803;SDS011;4438;50.890;4.726;2023-05-10T08:43:52;16.17;;;10.43;;
8803;SDS011;4438;50.890;4.726;2023-05-10T08:46:19;12.47;;;9.43;;
8803;SDS011;4438;50.890;4.726;2023-05-10T08:48:46;12.63;;;9.87;;
8803;SDS011;4438;50.890;4.726;2023-05-10T08:51:14;11.60;;;9.77;;
8803;SDS011;4438;50.890;4.726;2023-05-10T08:53:41;12.70;;;9.30;;
8803;SDS011;4438;50.890;4.726;2023-05-10T08:56:08;12.53;;;9.87;;
8803;SDS011;4438;50.890;4.726;2023-05-10T08:58:34;13.80;;;10.23;;
8803;SDS011;4438;50.890;4.726;2023-05-10T09:01:00;15.83;;;10.03;;
8803;SDS011;4438;50.890;4.726;2023-05-10T09:03:27;16.03;;;9.67;;
8803;SDS011;4438;50.890;4.726;2023-05-10T09:05:53;11.57;;;9.07;;
8803;SDS011;4438;50.890;4.726;2023-05-10T09:08:20;11.93;;;8.93;;
8803;SDS011;4438;50.890;4.726;2023-05-10T09:10:47;12.30;;;8.80;;
8803;SDS011;4438;50.890;4.726;2023-05-10T09:13:14;13.83;;;9.97;;
8803;SDS011;4438;50.890;4.726;2023-05-10T09:15:40;13.33;;;9.70;;
8803;SDS011;4438;50.890;4.726;2023-05-10T09:18:07;10.47;;;8.73;;
8803;SDS011;4438;50.890;4.726;2023-05-10T09:20:33;10.10;;;8.47;;
8803;SDS011;4438;50.890;4.726;2023-05-10T09:22:59;11.60;;;8.67;;
8803;SDS011;4438;50.890;4.726;2023-05-10T09:25:25;10.30;;;8.93;;
8803;SDS011;4438;50.890;4.726;2023-05-10T09:27:51;11.13;;;8.57;;
8803;SDS011;4438;50.890;4.726;2023-05-10T09:30:25;11.50;;;7.47;;
8803;SDS011;4438;50.890;4.726;2023-05-10T09:32:52;9.07;;;7.03;;
8803;SDS011;4438;50.890;4.726;2023-05-10T09:35:20;10.03;;;7.33;;
8803;SDS011;4438;50.890;4.726;2023-05-10T09:37:47;9.37;;;8.13;;
8803;SDS011;4438;50.890;4.726;2023-05-10T09:40:14;9.70;;;7.33;;
8803;SDS011;4438;50.890;4.726;2023-05-10T09:42:42;8.53;;;6.93;;
8803;SDS011;4438;50.890;4.726;2023-05-10T09:45:08;8.03;;;7.23;;
8803;SDS011;4438;50.890;4.726;2023-05-10T09:47:35;7.47;;;6.60;;
8803;SDS011;4438;50.890;4.726;2023-05-10T09:50:02;8.47;;;6.87;;
8803;SDS011;4438;50.890;4.726;2023-05-10T09:52:29;7.30;;;6.47;;
8803;SDS011;4438;50.890;4.726;2023-05-10T09:54:56;8.00;;;6.37;;
8803;SDS011;4438;50.890;4.726;2023-05-10T09:57:23;7.03;;;5.87;;
8803;SDS011;4438;50.890;4.726;2023-05-10T09:59:50;6.83;;;5.87;;
8803;SDS011;4438;50.890;4.726;2023-05-10T10:02:18;6.40;;;5.73;;
8803;SDS011;4438;50.890;4.726;2023-05-10T10:04:45;5.50;;;4.90;;
8803;SDS011;4438;50.890;4.726;2023-05-10T10:07:15;6.93;;;4.87;;
8803;SDS011;4438;50.890;4.726;2023-05-10T10:09:47;5.17;;;4.67;;
8803;SDS011;4438;50.890;4.726;2023-05-10T10:12:14;6.10;;;5.20;;
8803;SDS011;4438;50.890;4.726;2023-05-10T10:14:42;4.90;;;4.40;;
8803;SDS011;4438;50.890;4.726;2023-05-10T10:17:08;5.67;;;4.37;;
8803;SDS011;4438;50.890;4.726;2023-05-10T10:19:35;4.50;;;4.07;;
8803;SDS011;4438;50.890;4.726;2023-05-10T10:22:01;3.93;;;3.57;;
8803;SDS011;4438;50.890;4.726;2023-05-10T10:24:27;5.20;;;4.53;;
8803;SDS011;4438;50.890;4.726;2023-05-10T10:26:54;4.07;;;3.67;;
8803;SDS011;4438;50.890;4.726;2023-05-10T10:29:23;4.73;;;3.63;;
8803;SDS011;4438;50.890;4.726;2023-05-10T10:31:54;4.17;;;3.53;;
8803;SDS011;4438;50.890;4.726;2023-05-10T10:34:27;3.97;;;3.57;;
8803;SDS011;4438;50.890;4.726;2023-05-10T10:36:54;3.90;;;3.50;;
8803;SDS011;4438;50.890;4.726;2023-05-10T10:39:21;5.73;;;4.00;;
8803;SDS011;4438;50.890;4.726;2023-05-10T10:41:51;4.43;;;4.03;;
8803;SDS011;4438;50.890;4.726;2023-05-10T10:44:24;4.40;;;3.90;;
8803;SDS011;4438;50.890;4.726;2023-05-10T10:47:01;4.20;;;3.80;;
8803;SDS011;4438;50.890;4.726;2023-05-10T10:49:28;4.70;;;3.67;;
8803;SDS011;4438;50.890;4.726;2023-05-10T10:54:39;3.53;;;3.20;;
8803;SDS011;4438;50.890;4.726;2023-05-10T10:57:13;4.83;;;3.40;;
8803;SDS011;4438;50.890;4.726;2023-05-10T10:59:43;3.17;;;2.77;;
8803;SDS011;4438;50.890;4.726;2023-05-10T11:02:09;2.70;;;2.50;;
8803;SDS011;4438;50.890;4.726;2023-05-10T11:04:42;3.53;;;3.23;;
8803;SDS011;4438;50.890;4.726;2023-05-10T11:07:18;3.60;;;3.20;;
8803;SDS011;4438;50.890;4.726;2023-05-10T11:09:45;3.30;;;2.60;;
8803;SDS011;4438;50.890;4.726;2023-05-10T11:12:12;5.13;;;2.40;;
8803;SDS011;4438;50.890;4.726;2023-05-10T11:14:39;3.00;;;2.80;;
8803;SDS011;4438;50.890;4.726;2023-05-10T11:17:24;2.73;;;2.30;;
8803;SDS011;4438;50.890;4.726;2023-05-10T11:20:09;2.37;;;2.17;;
8803;SDS011;4438;50.890;4.726;2023-05-10T11:22:54;2.43;;;2.23;;
8803;SDS011;4438;50.890;4.726;2023-05-10T11:25:25;2.50;;;2.30;;
8803;SDS011;4438;50.890;4.726;2023-05-10T11:27:52;2.03;;;1.87;;
8803;SDS011;4438;50.890;4.726;2023-05-10T11:30:18;1.90;;;1.77;;
8803;SDS011;4438;50.890;4.726;2023-05-10T11:32:44;2.13;;;1.97;;
8803;SDS011;4438;50.890;4.726;2023-05-10T11:35:10;1.80;;;1.70;;
8803;SDS011;4438;50.890;4.726;2023-05-10T11:37:38;2.00;;;1.60;;
8803;SDS011;4438;50.890;4.726;2023-05-10T11:40:08;1.90;;;1.80;;
8803;SDS011;4438;50.890;4.726;2023-05-10T11:42:38;1.70;;;1.60;;
8803;SDS011;4438;50.890;4.726;2023-05-10T11:45:04;1.77;;;1.67;;
8803;SDS011;4438;50.890;4.726;2023-05-10T11:47:31;1.60;;;1.50;;
8803;SDS011;4438;50.890;4.726;2023-05-10T11:49:57;1.93;;;1.57;;
8803;SDS011;4438;50.890;4.726;2023-05-10T11:52:23;2.00;;;1.80;;
8803;SDS011;4438;50.890;4.726;2023-05-10T11:54:52;1.67;;;1.57;;
8803;SDS011;4438;50.890;4.726;2023-05-10T11:57:19;1.57;;;1.47;;
8803;SDS011;4438;50.890;4.726;2023-05-10T11:59:52;1.90;;;1.80;;
8803;SDS011;4438;50.890;4.726;2023-05-10T12:02:20;2.10;;;2.00;;
8803;SDS011;4438;50.890;4.726;2023-05-10T12:04:46;2.37;;;2.20;;
8803;SDS011;4438;50.890;4.726;2023-05-10T12:07:12;2.40;;;2.20;;
8803;SDS011;4438;50.890;4.726;2023-05-10T12:10:01;2.50;;;2.27;;
8803;SDS011;4438;50.890;4.726;2023-05-10T12:12:34;3.00;;;2.70;;
8803;SDS011;4438;50.890;4.726;2023-05-10T12:15:01;2.87;;;2.67;;
8803;SDS011;4438;50.890;4.726;2023-05-10T12:17:28;2.90;;;2.60;;
8803;SDS011;4438;50.890;4.726;2023-05-10T12:19:58;3.40;;;3.10;;
8803;SDS011;4438;50.890;4.726;2023-05-10T12:22:25;3.17;;;2.87;;
8803;SDS011;4438;50.890;4.726;2023-05-10T12:24:51;3.03;;;2.80;;
8803;SDS011;4438;50.890;4.726;2023-05-10T12:27:17;3.07;;;2.87;;
8803;SDS011;4438;50.890;4.726;2023-05-10T12:29:43;3.43;;;3.13;;
8803;SDS011;4438;50.890;4.726;2023-05-10T12:32:10;3.00;;;2.80;;
8803;SDS011;4438;50.890;4.726;2023-05-10T12:34:36;4.00;;;3.60;;
8803;SDS011;4438;50.890;4.726;2023-05-10T12:37:03;3.10;;;2.87;;
8803;SDS011;4438;50.890;4.726;2023-05-10T12:39:43;3.20;;;3.00;;
8803;SDS011;4438;50.890;4.726;2023-05-10T12:42:09;3.43;;;3.13;;
8803;SDS011;4438;50.890;4.726;2023-05-10T12:44:35;3.10;;;2.90;;
8803;SDS011;4438;50.890;4.726;2023-05-10T12:47:01;3.17;;;2.87;;
8803;SDS011;4438;50.890;4.726;2023-05-10T12:49:27;3.07;;;2.83;;
8803;SDS011;4438;50.890;4.726;2023-05-10T12:51:53;3.40;;;3.10;;
8803;SDS011;4438;50.890;4.726;2023-05-10T12:54:19;3.40;;;3.10;;
8803;SDS011;4438;50.890;4.726;2023-05-10T12:56:46;3.43;;;3.13;;
8803;SDS011;4438;50.890;4.726;2023-05-10T12:59:12;3.20;;;3.00;;
8803;SDS011;4438;50.890;4.726;2023-05-10T13:01:38;3.20;;;2.70;;
8803;SDS011;4438;50.890;4.726;2023-05-10T13:04:04;2.73;;;2.53;;
8803;SDS011;4438;50.890;4.726;2023-05-10T13:06:30;2.67;;;2.47;;
8803;SDS011;4438;50.890;4.726;2023-05-10T13:08:56;4.20;;;2.93;;
8803;SDS011;4438;50.890;4.726;2023-05-10T13:11:23;3.30;;;3.00;;
8803;SDS011;4438;50.890;4.726;2023-05-10T13:13:49;3.40;;;2.97;;
8803;SDS011;4438;50.890;4.726;2023-05-10T13:16:15;3.20;;;2.90;;
8803;SDS011;4438;50.890;4.726;2023-05-10T13:18:41;3.33;;;2.53;;
8803;SDS011;4438;50.890;4.726;2023-05-10T13:21:07;2.83;;;2.60;;
8803;SDS011;4438;50.890;4.726;2023-05-10T13:23:34;2.90;;;2.70;;
8803;SDS011;4438;50.890;4.726;2023-05-10T13:26:00;3.67;;;3.40;;
8803;SDS011;4438;50.890;4.726;2023-05-10T13:28:26;3.17;;;2.87;;
8803;SDS011;4438;50.890;4.726;2023-05-10T13:30:52;3.30;;;3.00;;
8803;SDS011;4438;50.890;4.726;2023-05-10T13:33:18;4.17;;;3.10;;
8803;SDS011;4438;50.890;4.726;2023-05-10T13:35:44;3.23;;;2.93;;
8803;SDS011;4438;50.890;4.726;2023-05-10T13:38:11;3.67;;;3.10;;
8803;SDS011;4438;50.890;4.726;2023-05-10T13:40:37;3.83;;;2.70;;
8803;SDS011;4438;50.890;4.726;2023-05-10T13:43:06;3.40;;;3.10;;
8803;SDS011;4438;50.890;4.726;2023-05-10T13:45:33;4.20;;;3.80;;
8803;SDS011;4438;50.890;4.726;2023-05-10T13:47:59;4.47;;;3.30;;
8803;SDS011;4438;50.890;4.726;2023-05-10T13:50:25;4.73;;;3.10;;
8803;SDS011;4438;50.890;4.726;2023-05-10T13:52:52;3.23;;;2.77;;
8803;SDS011;4438;50.890;4.726;2023-05-10T13:55:18;3.13;;;2.83;;
8803;SDS011;4438;50.890;4.726;2023-05-10T13:57:44;2.70;;;2.50;;
8803;SDS011;4438;50.890;4.726;2023-05-10T14:00:10;3.50;;;3.20;;
8803;SDS011;4438;50.890;4.726;2023-05-10T14:02:36;3.37;;;3.07;;
8803;SDS011;4438;50.890;4.726;2023-05-10T14:05:03;3.20;;;2.90;;
8803;SDS011;4438;50.890;4.726;2023-05-10T14:07:29;3.60;;;3.30;;
8803;SDS011;4438;50.890;4.726;2023-05-10T14:09:55;3.93;;;3.00;;
8803;SDS011;4438;50.890;4.726;2023-05-10T14:12:21;3.30;;;3.00;;
8803;SDS011;4438;50.890;4.726;2023-05-10T14:14:49;3.50;;;3.20;;
8803;SDS011;4438;50.890;4.726;2023-05-10T14:17:15;3.27;;;3.07;;
8803;SDS011;4438;50.890;4.726;2023-05-10T14:19:41;3.20;;;3.00;;
8803;SDS011;4438;50.890;4.726;2023-05-10T14:22:08;3.40;;;3.10;;
8803;SDS011;4438;50.890;4.726;2023-05-10T14:24:34;3.43;;;3.10;;
8803;SDS011;4438;50.890;4.726;2023-05-10T14:27:00;3.13;;;2.90;;
8803;SDS011;4438;50.890;4.726;2023-05-10T14:29:27;3.50;;;3.20;;
8803;SDS011;4438;50.890;4.726;2023-05-10T14:31:53;3.30;;;2.93;;
8803;SDS011;4438;50.890;4.726;2023-05-10T14:34:20;3.90;;;3.60;;
8803;SDS011;4438;50.890;4.726;2023-05-10T14:36:46;3.83;;;3.53;;
8803;SDS011;4438;50.890;4.726;2023-05-10T14:39:12;3.70;;;3.40;;
8803;SDS011;4438;50.890;4.726;2023-05-10T14:41:38;4.30;;;3.90;;
8803;SDS011;4438;50.890;4.726;2023-05-10T14:44:07;3.67;;;3.37;;
8803;SDS011;4438;50.890;4.726;2023-05-10T14:46:35;3.63;;;3.33;;
8803;SDS011;4438;50.890;4.726;2023-05-10T14:49:01;4.27;;;3.67;;
8803;SDS011;4438;50.890;4.726;2023-05-10T14:51:27;3.70;;;3.40;;
8803;SDS011;4438;50.890;4.726;2023-05-10T14:53:53;3.90;;;3.50;;
8803;SDS011;4438;50.890;4.726;2023-05-10T14:56:19;6.60;;;4.50;;
8803;SDS011;4438;50.890;4.726;2023-05-10T14:58:46;4.57;;;4.00;;
8803;SDS011;4438;50.890;4.726;2023-05-10T15:01:12;4.97;;;3.93;;
8803;SDS011;4438;50.890;4.726;2023-05-10T15:03:38;4.43;;;4.03;;
8803;SDS011;4438;50.890;4.726;2023-05-10T15:06:04;4.10;;;3.70;;
8803;SDS011;4438;50.890;4.726;2023-05-10T15:08:34;5.30;;;4.80;;
8803;SDS011;4438;50.890;4.726;2023-05-10T15:11:00;5.10;;;4.60;;
8803;SDS011;4438;50.890;4.726;2023-05-10T15:13:26;5.10;;;4.70;;
8803;SDS011;4438;50.890;4.726;2023-05-10T15:15:52;4.90;;;4.07;;
8803;SDS011;4438;50.890;4.726;2023-05-10T15:18:18;5.30;;;4.30;;
8803;SDS011;4438;50.890;4.726;2023-05-10T15:20:44;5.57;;;4.93;;
8803;SDS011;4438;50.890;4.726;2023-05-10T15:23:11;5.73;;;4.97;;